sensor_id;sensor_type;location;lat;lon;timestamp;pressure;altitude;pressure_sealevel;temperature;humidity
60465;BME280;46314;52.392;9.758;2023-02-01T00:02:05;100762.88;;;6.15;74.52
60465;BME280;46314;52.392;9.758;2023-02-01T00:04:31;100760.88;;;6.05;75.20
60465;BME280;46314;52.392;9.758;2023-02-01T00:06:58;100765.03;;;6.07;75.31
60465;BME280;46314;52.392;9.758;2023-02-01T00:09:25;100764.75;;;6.04;74.78
60465;BME280;46314;52.392;9.758;2023-02-01T00:11:52;100761.44;;;6.02;75.08
60465;BME280;46314;52.392;9.758;2023-02-01T00:14:19;100765.25;;;5.96;75.28
60465;BME280;46314;52.392;9.758;2023-02-01T00:16:45;100761.00;;;6.31;73.84
60465;BME280;46314;52.392;9.758;2023-02-01T00:19:13;100757.06;;;6.11;74.49
60465;BME280;46314;52.392;9.758;2023-02-01T00:21:40;100750.50;;;6.22;73.77
60465;BME280;46314;52.392;9.758;2023-02-01T00:24:09;100751.56;;;6.11;73.88
60465;BME280;46314;52.392;9.758;2023-02-01T00:26:38;100747.13;;;6.00;74.77
60465;BME280;46314;52.392;9.758;2023-02-01T00:29:09;100736.34;;;5.45;76.56
60465;BME280;46314;52.392;9.758;2023-02-01T00:31:36;100743.84;;;6.13;74.01
60465;BME280;46314;52.392;9.758;2023-02-01T00:34:03;100750.16;;;5.98;75.15
60465;BME280;46314;52.392;9.758;2023-02-01T00:36:29;100747.72;;;6.07;74.28
60465;BME280;46314;52.392;9.758;2023-02-01T00:38:56;100750.44;;;6.02;74.62
60465;BME280;46314;52.392;9.758;2023-02-01T00:41:22;100747.72;;;6.12;73.45
60465;BME280;46314;52.392;9.758;2023-02-01T00:43:49;100748.03;;;6.21;73.48
60465;BME280;46314;52.392;9.758;2023-02-01T00:46:18;100744.31;;;5.95;73.51
60465;BME280;46314;52.392;9.758;2023-02-01T00:48:45;100752.50;;;5.79;75.62
60465;BME280;46314;52.392;9.758;2023-02-01T00:51:13;100748.75;;;5.96;74.42
60465;BME280;46314;52.392;9.758;2023-02-01T00:53:40;100723.25;;;5.63;75.04
60465;BME280;46314;52.392;9.758;2023-02-01T00:56:07;100734.25;;;5.68;75.47
60465;BME280;46314;52.392;9.758;2023-02-01T00:58:34;100735.75;;;5.86;74.06
60465;BME280;46314;52.392;9.758;2023-02-01T01:01:03;100726.69;;;5.43;75.75
60465;BME280;46314;52.392;9.758;2023-02-01T01:03:33;100719.72;;;5.78;74.62
60465;BME280;46314;52.392;9.758;2023-02-01T01:06:02;100723.84;;;5.70;74.70
60465;BME280;46314;52.392;9.758;2023-02-01T01:08:29;100718.81;;;5.62;76.62
60465;BME280;46314;52.392;9.758;2023-02-01T01:10:55;100716.06;;;6.15;74.21
60465;BME280;46314;52.392;9.758;2023-02-01T01:13:22;100733.94;;;6.07;73.92
60465;BME280;46314;52.392;9.758;2023-02-01T01:15:48;100730.38;;;6.17;73.44
60465;BME280;46314;52.392;9.758;2023-02-01T01:18:15;100734.56;;;6.35;72.96
60465;BME280;46314;52.392;9.758;2023-02-01T01:20:43;100731.78;;;6.24;72.86
60465;BME280;46314;52.392;9.758;2023-02-01T01:23:09;100739.78;;;6.21;73.12
60465;BME280;46314;52.392;9.758;2023-02-01T01:25:37;100729.28;;;6.18;73.13
60465;BME280;46314;52.392;9.758;2023-02-01T01:28:04;100721.44;;;5.94;73.92
60465;BME280;46314;52.392;9.758;2023-02-01T01:30:31;100716.50;;;5.91;73.11
60465;BME280;46314;52.392;9.758;2023-02-01T01:32:57;100713.03;;;6.16;73.75
60465;BME280;46314;52.392;9.758;2023-02-01T01:35:24;100708.44;;;6.53;71.84
60465;BME280;46314;52.392;9.758;2023-02-01T01:37:51;100730.16;;;6.29;72.76
60465;BME280;46314;52.392;9.758;2023-02-01T01:40:18;100712.25;;;6.41;72.04
60465;BME280;46314;52.392;9.758;2023-02-01T01:42:45;100713.44;;;5.93;73.47
60465;BME280;46314;52.392;9.758;2023-02-01T01:45:21;100706.97;;;6.14;72.75
60465;BME280;46314;52.392;9.758;2023-02-01T01:47:51;100705.03;;;6.10;73.29
60465;BME280;46314;52.392;9.758;2023-02-01T01:50:21;100709.06;;;5.92;73.69
60465;BME280;46314;52.392;9.758;2023-02-01T01:52:51;100710.53;;;6.15;73.25
60465;BME280;46314;52.392;9.758;2023-02-01T01:55:20;100696.97;;;5.98;73.77
60465;BME280;46314;52.392;9.758;2023-02-01T01:57:52;100688.00;;;5.60;73.86
60465;BME280;46314;52.392;9.758;2023-02-01T02:00:22;100691.84;;;5.59;74.57
60465;BME280;46314;52.392;9.758;2023-02-01T02:02:54;100690.41;;;6.04;73.04
60465;BME280;46314;52.392;9.758;2023-02-01T02:05:23;100681.50;;;5.86;73.45
60465;BME280;46314;52.392;9.758;2023-02-01T02:07:52;100684.78;;;5.78;74.33
60465;BME280;46314;52.392;9.758;2023-02-01T02:10:19;100681.16;;;5.73;74.34
60465;BME280;46314;52.392;9.758;2023-02-01T02:12:47;100682.63;;;5.91;73.36
60465;BME280;46314;52.392;9.758;2023-02-01T02:15:16;100680.97;;;5.90;73.93
60465;BME280;46314;52.392;9.758;2023-02-01T02:17:49;100691.69;;;5.81;73.90
60465;BME280;46314;52.392;9.758;2023-02-01T02:20:52;100675.19;;;5.86;73.56
60465;BME280;46314;52.392;9.758;2023-02-01T02:24:01;100675.00;;;6.08;72.43
60465;BME280;46314;52.392;9.758;2023-02-01T02:27:01;100659.63;;;5.59;74.10
60465;BME280;46314;52.392;9.758;2023-02-01T02:29:45;100670.03;;;6.10;73.14
60465;BME280;46314;52.392;9.758;2023-02-01T02:35:33;100661.00;;;6.25;72.01
60465;BME280;46314;52.392;9.758;2023-02-01T02:38:13;100645.31;;;6.36;71.41
60465;BME280;46314;52.392;9.758;2023-02-01T02:40:46;100643.09;;;6.28;71.70
60465;BME280;46314;52.392;9.758;2023-02-01T02:43:20;100628.53;;;5.54;73.95
60465;BME280;46314;52.392;9.758;2023-02-01T02:45:52;100631.31;;;5.59;74.22
60465;BME280;46314;52.392;9.758;2023-02-01T02:48:22;100640.50;;;5.90;73.37
60465;BME280;46314;52.392;9.758;2023-02-01T02:50:59;100623.81;;;6.33;71.24
60465;BME280;46314;52.392;9.758;2023-02-01T02:53:31;100629.06;;;6.55;70.78
60465;BME280;46314;52.392;9.758;2023-02-01T02:55:59;100620.50;;;6.72;70.24
60465;BME280;46314;52.392;9.758;2023-02-01T02:58:27;100621.31;;;6.00;71.69
60465;BME280;46314;52.392;9.758;2023-02-01T03:00:54;100610.88;;;6.28;71.38
60465;BME280;46314;52.392;9.758;2023-02-01T03:03:22;100610.03;;;6.17;71.83
60465;BME280;46314;52.392;9.758;2023-02-01T03:05:49;100613.50;;;5.87;72.80
60465;BME280;46314;52.392;9.758;2023-02-01T03:08:18;100610.03;;;6.22;71.85
60465;BME280;46314;52.392;9.758;2023-02-01T03:10:49;100610.06;;;6.48;70.96
60465;BME280;46314;52.392;9.758;2023-02-01T03:13:22;100600.94;;;6.12;71.34
60465;BME280;46314;52.392;9.758;2023-02-01T03:15:55;100602.06;;;6.16;72.69
60465;BME280;46314;52.392;9.758;2023-02-01T03:18:26;100604.56;;;6.69;70.78
60465;BME280;46314;52.392;9.758;2023-02-01T03:20:55;100601.75;;;6.17;71.04
60465;BME280;46314;52.392;9.758;2023-02-01T03:23:27;100598.16;;;6.06;72.35
60465;BME280;46314;52.392;9.758;2023-02-01T03:25:58;100595.75;;;6.67;69.85
60465;BME280;46314;52.392;9.758;2023-02-01T03:28:28;100584.41;;;6.63;69.81
60465;BME280;46314;52.392;9.758;2023-02-01T03:30:56;100590.88;;;5.64;73.67
60465;BME280;46314;52.392;9.758;2023-02-01T03:33:25;100582.97;;;5.94;72.59
60465;BME280;46314;52.392;9.758;2023-02-01T03:35:58;100585.25;;;6.12;72.28
60465;BME280;46314;52.392;9.758;2023-02-01T03:38:32;100577.28;;;6.47;70.92
60465;BME280;46314;52.392;9.758;2023-02-01T03:41:04;100583.59;;;6.42;70.85
60465;BME280;46314;52.392;9.758;2023-02-01T03:43:39;100563.75;;;6.50;71.10
60465;BME280;46314;52.392;9.758;2023-02-01T03:46:12;100564.81;;;5.87;73.69
60465;BME280;46314;52.392;9.758;2023-02-01T03:48:44;100555.66;;;5.72;73.97
60465;BME280;46314;52.392;9.758;2023-02-01T03:51:11;100561.31;;;6.28;72.62
60465;BME280;46314;52.392;9.758;2023-02-01T03:53:41;100545.03;;;5.96;74.07
60465;BME280;46314;52.392;9.758;2023-02-01T03:56:09;100550.75;;;5.89;74.50
60465;BME280;46314;52.392;9.758;2023-02-01T03:58:36;100546.06;;;5.79;74.27
60465;BME280;46314;52.392;9.758;2023-02-01T04:01:02;100534.03;;;6.21;73.36
60465;BME280;46314;52.392;9.758;2023-02-01T04:03:29;100544.75;;;6.49;72.16
60465;BME280;46314;52.392;9.758;2023-02-01T04:05:56;100529.31;;;5.91;73.62
60465;BME280;46314;52.392;9.758;2023-02-01T04:08:23;100531.28;;;6.32;72.22
60465;BME280;46314;52.392;9.758;2023-02-01T04:10:51;100532.09;;;5.96;73.45
60465;BME280;46314;52.392;9.758;2023-02-01T04:13:17;100536.50;;;5.97;74.58
60465;BME280;46314;52.392;9.758;2023-02-01T04:15:44;100534.28;;;6.04;73.64
60465;BME280;46314;52.392;9.758;2023-02-01T04:18:10;100533.47;;;6.40;72.94
60465;BME280;46314;52.392;9.758;2023-02-01T04:20:36;100534.22;;;5.84;75.06
60465;BME280;46314;52.392;9.758;2023-02-01T04:23:03;100537.88;;;6.25;73.80
60465;BME280;46314;52.392;9.758;2023-02-01T04:25:29;100536.78;;;6.37;73.59
60465;BME280;46314;52.392;9.758;2023-02-01T04:27:57;100527.94;;;6.30;74.36
60465;BME280;46314;52.392;9.758;2023-02-01T04:30:24;100527.16;;;6.09;76.25
60465;BME280;46314;52.392;9.758;2023-02-01T04:32:51;100517.50;;;6.27;75.32
60465;BME280;46314;52.392;9.758;2023-02-01T04:35:17;100518.88;;;6.44;74.90
60465;BME280;46314;52.392;9.758;2023-02-01T04:37:44;100505.09;;;6.29;74.77
60465;BME280;46314;52.392;9.758;2023-02-01T04:40:11;100504.75;;;6.72;73.78
60465;BME280;46314;52.392;9.758;2023-02-01T04:42:38;100502.63;;;6.38;74.33
60465;BME280;46314;52.392;9.758;2023-02-01T04:45:07;100502.06;;;6.46;74.79
60465;BME280;46314;52.392;9.758;2023-02-01T04:47:34;100497.97;;;6.13;74.86
60465;BME280;46314;52.392;9.758;2023-02-01T04:50:00;100496.88;;;6.03;75.62
60465;BME280;46314;52.392;9.758;2023-02-01T04:52:27;100487.75;;;6.18;75.50
60465;BME280;46314;52.392;9.758;2023-02-01T04:54:53;100497.13;;;6.12;75.76
60465;BME280;46314;52.392;9.758;2023-02-01T04:57:19;100498.22;;;6.27;76.33
60465;BME280;46314;52.392;9.758;2023-02-01T04:59:46;100502.06;;;5.95;78.30
60465;BME280;46314;52.392;9.758;2023-02-01T05:02:13;100496.00;;;5.77;79.97
60465;BME280;46314;52.392;9.758;2023-02-01T05:04:40;100492.19;;;5.99;80.04
60465;BME280;46314;52.392;9.758;2023-02-01T05:07:07;100488.50;;;5.57;81.26
60465;BME280;46314;52.392;9.758;2023-02-01T05:09:33;100488.25;;;5.64;82.75
60465;BME280;46314;52.392;9.758;2023-02-01T05:11:59;100484.41;;;5.80;83.09
60465;BME280;46314;52.392;9.758;2023-02-01T05:14:26;100481.44;;;6.02;82.36
60465;BME280;46314;52.392;9.758;2023-02-01T05:16:52;100480.56;;;5.92;81.25
60465;BME280;46314;52.392;9.758;2023-02-01T05:19:20;100476.47;;;5.79;83.29
60465;BME280;46314;52.392;9.758;2023-02-01T05:21:46;100477.00;;;6.01;81.66
60465;BME280;46314;52.392;9.758;2023-02-01T05:24:13;100483.38;;;5.97;82.82
60465;BME280;46314;52.392;9.758;2023-02-01T05:26:40;100488.03;;;5.86;82.58
60465;BME280;46314;52.392;9.758;2023-02-01T05:29:07;100487.97;;;5.65;84.87
60465;BME280;46314;52.392;9.758;2023-02-01T05:31:34;100497.97;;;6.02;82.66
60465;BME280;46314;52.392;9.758;2023-02-01T05:34:01;100487.72;;;5.72;84.04
60465;BME280;46314;52.392;9.758;2023-02-01T05:36:29;100472.91;;;6.14;82.58
60465;BME280;46314;52.392;9.758;2023-02-01T05:38:55;100475.06;;;5.81;84.03
60465;BME280;46314;52.392;9.758;2023-02-01T05:41:22;100470.59;;;5.34;86.02
60465;BME280;46314;52.392;9.758;2023-02-01T05:43:48;100473.41;;;5.85;84.46
60465;BME280;46314;52.392;9.758;2023-02-01T05:46:15;100462.97;;;5.82;84.08
60465;BME280;46314;52.392;9.758;2023-02-01T05:48:42;100461.56;;;5.75;83.45
60465;BME280;46314;52.392;9.758;2023-02-01T05:51:09;100468.13;;;5.43;85.56
60465;BME280;46314;52.392;9.758;2023-02-01T05:53:37;100451.97;;;5.77;84.00
60465;BME280;46314;52.392;9.758;2023-02-01T05:56:05;100450.03;;;5.83;84.20
60465;BME280;46314;52.392;9.758;2023-02-01T05:58:31;100446.16;;;5.94;83.48
60465;BME280;46314;52.392;9.758;2023-02-01T06:00:58;100449.19;;;5.77;82.47
60465;BME280;46314;52.392;9.758;2023-02-01T06:03:25;100444.78;;;5.66;83.16
60465;BME280;46314;52.392;9.758;2023-02-01T06:05:52;100438.19;;;5.82;82.38
60465;BME280;46314;52.392;9.758;2023-02-01T06:08:18;100439.31;;;5.97;81.21
60465;BME280;46314;52.392;9.758;2023-02-01T06:10:46;100421.91;;;5.35;83.65
60465;BME280;46314;52.392;9.758;2023-02-01T06:13:12;100430.47;;;5.74;81.63
60465;BME280;46314;52.392;9.758;2023-02-01T06:15:39;100421.94;;;5.55;83.04
60465;BME280;46314;52.392;9.758;2023-02-01T06:18:05;100424.69;;;5.60;83.34
60465;BME280;46314;52.392;9.758;2023-02-01T06:20:32;100424.44;;;5.72;82.37
60465;BME280;46314;52.392;9.758;2023-02-01T06:22:58;100426.91;;;5.79;82.34
60465;BME280;46314;52.392;9.758;2023-02-01T06:25:25;100427.16;;;5.57;83.10
60465;BME280;46314;52.392;9.758;2023-02-01T06:27:52;100436.25;;;5.73;82.08
60465;BME280;46314;52.392;9.758;2023-02-01T06:30:19;100435.75;;;5.96;82.36
60465;BME280;46314;52.392;9.758;2023-02-01T06:32:50;100431.59;;;6.04;81.16
60465;BME280;46314;52.392;9.758;2023-02-01T06:35:16;100439.56;;;5.80;82.55
60465;BME280;46314;52.392;9.758;2023-02-01T06:37:43;100440.41;;;5.70;82.99
60465;BME280;46314;52.392;9.758;2023-02-01T06:40:10;100450.56;;;5.80;82.11
60465;BME280;46314;52.392;9.758;2023-02-01T06:42:37;100440.09;;;5.77;81.88
60465;BME280;46314;52.392;9.758;2023-02-01T06:45:06;100448.94;;;5.79;83.06
60465;BME280;46314;52.392;9.758;2023-02-01T06:47:33;100448.59;;;5.44;83.57
60465;BME280;46314;52.392;9.758;2023-02-01T06:49:59;100452.44;;;5.43;84.49
60465;BME280;46314;52.392;9.758;2023-02-01T06:52:26;100470.66;;;5.60;85.23
60465;BME280;46314;52.392;9.758;2023-02-01T06:54:52;100452.47;;;5.59;85.54
60465;BME280;46314;52.392;9.758;2023-02-01T06:57:18;100456.63;;;5.56;85.89
60465;BME280;46314;52.392;9.758;2023-02-01T06:59:45;100465.44;;;5.68;84.54
60465;BME280;46314;52.392;9.758;2023-02-01T07:02:12;100465.09;;;5.34;85.81
60465;BME280;46314;52.392;9.758;2023-02-01T07:04:39;100475.03;;;5.61;84.66
60465;BME280;46314;52.392;9.758;2023-02-01T07:07:05;100469.28;;;5.67;84.49
60465;BME280;46314;52.392;9.758;2023-02-01T07:09:32;100481.09;;;5.53;84.73
60465;BME280;46314;52.392;9.758;2023-02-01T07:11:58;100462.91;;;5.41;85.00
60465;BME280;46314;52.392;9.758;2023-02-01T07:14:25;100483.84;;;5.58;84.80
60465;BME280;46314;52.392;9.758;2023-02-01T07:16:51;100475.06;;;5.81;83.87
60465;BME280;46314;52.392;9.758;2023-02-01T07:19:19;100467.34;;;5.83;83.53
60465;BME280;46314;52.392;9.758;2023-02-01T07:21:45;100479.19;;;5.68;84.02
60465;BME280;46314;52.392;9.758;2023-02-01T07:24:12;100489.91;;;5.85;83.91
60465;BME280;46314;52.392;9.758;2023-02-01T07:26:38;100475.31;;;5.64;84.97
60465;BME280;46314;52.392;9.758;2023-02-01T07:29:05;100467.91;;;5.70;83.84
60465;BME280;46314;52.392;9.758;2023-02-01T07:31:31;100480.03;;;5.84;83.92
60465;BME280;46314;52.392;9.758;2023-02-01T07:33:58;100475.34;;;5.95;83.45
60465;BME280;46314;52.392;9.758;2023-02-01T07:36:25;100470.69;;;6.06;82.48
60465;BME280;46314;52.392;9.758;2023-02-01T07:38:52;100477.81;;;5.71;83.69
60465;BME280;46314;52.392;9.758;2023-02-01T07:41:21;100485.00;;;5.98;83.45
60465;BME280;46314;52.392;9.758;2023-02-01T07:43:48;100480.03;;;6.05;82.38
60465;BME280;46314;52.392;9.758;2023-02-01T07:46:15;100474.25;;;6.06;82.15
60465;BME280;46314;52.392;9.758;2023-02-01T07:48:41;100487.75;;;5.82;82.79
60465;BME280;46314;52.392;9.758;2023-02-01T07:51:09;100493.25;;;5.82;82.82
60465;BME280;46314;52.392;9.758;2023-02-01T07:53:38;100480.03;;;6.15;81.15
60465;BME280;46314;52.392;9.758;2023-02-01T07:56:10;100474.00;;;6.13;81.50
60465;BME280;46314;52.392;9.758;2023-02-01T07:58:36;100474.53;;;6.05;81.74
60465;BME280;46314;52.392;9.758;2023-02-01T08:01:03;100465.19;;;6.01;82.06
60465;BME280;46314;52.392;9.758;2023-02-01T08:03:29;100469.84;;;5.95;81.43
60465;BME280;46314;52.392;9.758;2023-02-01T08:05:56;100477.28;;;5.79;81.32
60465;BME280;46314;52.392;9.758;2023-02-01T08:08:23;100478.34;;;5.73;82.64
60465;BME280;46314;52.392;9.758;2023-02-01T08:10:51;100484.38;;;5.44;83.01
60465;BME280;46314;52.392;9.758;2023-02-01T08:13:17;100495.75;;;5.99;81.74
60465;BME280;46314;52.392;9.758;2023-02-01T08:15:43;100496.56;;;6.10;80.75
60465;BME280;46314;52.392;9.758;2023-02-01T08:18:10;100501.25;;;6.10;80.24
60465;BME280;46314;52.392;9.758;2023-02-01T08:20:36;100515.56;;;6.01;81.14
60465;BME280;46314;52.392;9.758;2023-02-01T08:23:03;100516.13;;;6.34;79.61
60465;BME280;46314;52.392;9.758;2023-02-01T08:25:29;100506.50;;;6.32;79.13
60465;BME280;46314;52.392;9.758;2023-02-01T08:27:57;100524.09;;;6.51;78.39
60465;BME280;46314;52.392;9.758;2023-02-01T08:30:23;100527.13;;;6.39;79.10
60465;BME280;46314;52.392;9.758;2023-02-01T08:32:50;100527.94;;;6.40;78.33
60465;BME280;46314;52.392;9.758;2023-02-01T08:35:17;100526.59;;;6.37;78.85
60465;BME280;46314;52.392;9.758;2023-02-01T08:37:43;100525.72;;;6.62;77.78
60465;BME280;46314;52.392;9.758;2023-02-01T08:40:10;100527.41;;;6.48;78.05
60465;BME280;46314;52.392;9.758;2023-02-01T08:42:37;100525.78;;;6.16;79.51
60465;BME280;46314;52.392;9.758;2023-02-01T08:45:06;100525.72;;;6.57;77.48
60465;BME280;46314;52.392;9.758;2023-02-01T08:47:33;100513.59;;;6.74;77.11
60465;BME280;46314;52.392;9.758;2023-02-01T08:50:00;100510.50;;;6.86;75.90
60465;BME280;46314;52.392;9.758;2023-02-01T08:52:27;100508.28;;;6.88;76.04
60465;BME280;46314;52.392;9.758;2023-02-01T08:54:53;100517.72;;;6.66;76.13
60465;BME280;46314;52.392;9.758;2023-02-01T08:57:20;100522.41;;;6.71;75.78
60465;BME280;46314;52.392;9.758;2023-02-01T08:59:46;100520.75;;;6.64;76.33
60465;BME280;46314;52.392;9.758;2023-02-01T09:02:16;100517.44;;;6.73;75.77
60465;BME280;46314;52.392;9.758;2023-02-01T09:04:43;100519.00;;;6.99;75.07
60465;BME280;46314;52.392;9.758;2023-02-01T09:07:10;100516.03;;;6.75;75.74
60465;BME280;46314;52.392;9.758;2023-02-01T09:09:36;100531.69;;;7.00;74.87
60465;BME280;46314;52.392;9.758;2023-02-01T09:12:03;100534.09;;;7.17;73.37
60465;BME280;46314;52.392;9.758;2023-02-01T09:14:30;100527.69;;;7.37;72.53
60465;BME280;46314;52.392;9.758;2023-02-01T09:16:57;100515.19;;;7.50;72.01
60465;BME280;46314;52.392;9.758;2023-02-01T09:19:25;100529.94;;;7.30;71.83
60465;BME280;46314;52.392;9.758;2023-02-01T09:21:53;100522.25;;;7.17;71.97
60465;BME280;46314;52.392;9.758;2023-02-01T09:24:19;100529.28;;;7.49;72.50
60465;BME280;46314;52.392;9.758;2023-02-01T09:26:46;100523.91;;;7.18;72.23
60465;BME280;46314;52.392;9.758;2023-02-01T09:29:12;100520.63;;;7.11;72.60
60465;BME280;46314;52.392;9.758;2023-02-01T09:31:39;100526.69;;;7.18;72.36
60465;BME280;46314;52.392;9.758;2023-02-01T09:34:15;100523.06;;;7.23;72.34
60465;BME280;46314;52.392;9.758;2023-02-01T09:36:42;100530.16;;;7.39;71.78
60465;BME280;46314;52.392;9.758;2023-02-01T09:39:09;100537.25;;;6.80;73.35
60465;BME280;46314;52.392;9.758;2023-02-01T09:41:43;100526.03;;;7.36;72.13
60465;BME280;46314;52.392;9.758;2023-02-01T09:44:21;100537.19;;;7.11;72.28
60465;BME280;46314;52.392;9.758;2023-02-01T09:46:55;100539.97;;;7.00;72.78
60465;BME280;46314;52.392;9.758;2023-02-01T09:49:27;100532.78;;;6.99;73.21
60465;BME280;46314;52.392;9.758;2023-02-01T09:51:57;100544.53;;;7.31;72.15
60465;BME280;46314;52.392;9.758;2023-02-01T09:54:26;100540.94;;;7.35;72.14
60465;BME280;46314;52.392;9.758;2023-02-01T09:56:58;100547.47;;;7.55;71.39
60465;BME280;46314;52.392;9.758;2023-02-01T09:59:32;100534.69;;;7.19;72.53
60465;BME280;46314;52.392;9.758;2023-02-01T10:02:01;100543.75;;;7.25;71.71
60465;BME280;46314;52.392;9.758;2023-02-01T10:04:29;100549.31;;;7.15;72.32
60465;BME280;46314;52.392;9.758;2023-02-01T10:07:09;100544.53;;;7.31;70.92
60465;BME280;46314;52.392;9.758;2023-02-01T10:09:48;100543.34;;;7.52;70.59
60465;BME280;46314;52.392;9.758;2023-02-01T10:12:32;100541.81;;;7.26;70.93
60465;BME280;46314;52.392;9.758;2023-02-01T10:15:15;100537.31;;;7.40;69.99
60465;BME280;46314;52.392;9.758;2023-02-01T10:17:55;100535.31;;;7.56;70.19
60465;BME280;46314;52.392;9.758;2023-02-01T10:20:30;100539.53;;;7.88;69.46
60465;BME280;46314;52.392;9.758;2023-02-01T10:23:08;100529.69;;;7.76;70.00
60465;BME280;46314;52.392;9.758;2023-02-01T10:26:01;100535.81;;;7.63;70.21
60465;BME280;46314;52.392;9.758;2023-02-01T10:28:33;100526.97;;;7.66;69.32
60465;BME280;46314;52.392;9.758;2023-02-01T10:31:02;100531.38;;;7.72;69.47
60465;BME280;46314;52.392;9.758;2023-02-01T10:33:32;100526.31;;;7.35;71.01
60465;BME280;46314;52.392;9.758;2023-02-01T10:36:05;100521.66;;;7.80;69.80
60465;BME280;46314;52.392;9.758;2023-02-01T10:38:37;100516.53;;;7.58;70.08
60465;BME280;46314;52.392;9.758;2023-02-01T10:41:11;100516.16;;;7.75;70.14
60465;BME280;46314;52.392;9.758;2023-02-01T10:43:38;100504.41;;;7.54;70.89
60465;BME280;46314;52.392;9.758;2023-02-01T10:46:06;100518.34;;;7.78;70.04
60465;BME280;46314;52.392;9.758;2023-02-01T10:48:34;100507.13;;;7.64;70.03
60465;BME280;46314;52.392;9.758;2023-02-01T10:51:06;100518.81;;;7.46;70.63
60465;BME280;46314;52.392;9.758;2023-02-01T10:53:35;100518.22;;;7.54;70.06
60465;BME280;46314;52.392;9.758;2023-02-01T10:56:10;100512.88;;;7.23;71.37
60465;BME280;46314;52.392;9.758;2023-02-01T10:58:45;100513.59;;;7.44;70.13
60465;BME280;46314;52.392;9.758;2023-02-01T11:01:16;100506.13;;;7.45;69.88
60465;BME280;46314;52.392;9.758;2023-02-01T11:03:46;100502.13;;;7.66;69.05
60465;BME280;46314;52.392;9.758;2023-02-01T11:06:24;100492.91;;;7.36;70.31
60465;BME280;46314;52.392;9.758;2023-02-01T11:08:53;100496.09;;;7.59;69.19
60465;BME280;46314;52.392;9.758;2023-02-01T11:11:22;100485.53;;;7.71;68.90
60465;BME280;46314;52.392;9.758;2023-02-01T11:13:53;100474.13;;;7.38;69.10
60465;BME280;46314;52.392;9.758;2023-02-01T11:16:20;100468.31;;;7.90;67.74
60465;BME280;46314;52.392;9.758;2023-02-01T11:18:52;100475.75;;;7.89;68.28
60465;BME280;46314;52.392;9.758;2023-02-01T11:21:20;100473.13;;;8.03;67.92
60465;BME280;46314;52.392;9.758;2023-02-01T11:23:47;100468.09;;;7.36;68.38
60465;BME280;46314;52.392;9.758;2023-02-01T11:26:21;100451.88;;;7.69;67.69
60465;BME280;46314;52.392;9.758;2023-02-01T11:28:54;100446.06;;;8.05;66.87
60465;BME280;46314;52.392;9.758;2023-02-01T11:31:23;100445.81;;;7.23;69.62
60465;BME280;46314;52.392;9.758;2023-02-01T11:33:53;100437.97;;;7.85;67.17
60465;BME280;46314;52.392;9.758;2023-02-01T11:36:23;100442.72;;;8.08;67.06
60465;BME280;46314;52.392;9.758;2023-02-01T11:38:53;100431.44;;;8.34;66.08
60465;BME280;46314;52.392;9.758;2023-02-01T11:41:25;100431.72;;;8.32;65.75
60465;BME280;46314;52.392;9.758;2023-02-01T11:43:55;100423.91;;;8.69;64.45
60465;BME280;46314;52.392;9.758;2023-02-01T11:46:26;100418.47;;;8.59;64.17
60465;BME280;46314;52.392;9.758;2023-02-01T11:48:55;100405.47;;;8.83;64.68
60465;BME280;46314;52.392;9.758;2023-02-01T11:51:37;100403.53;;;9.03;64.86
60465;BME280;46314;52.392;9.758;2023-02-01T11:54:10;100391.09;;;7.74;69.68
60465;BME280;46314;52.392;9.758;2023-02-01T11:56:47;100384.38;;;8.44;66.90
60465;BME280;46314;52.392;9.758;2023-02-01T11:59:28;100373.97;;;8.60;66.05
60465;BME280;46314;52.392;9.758;2023-02-01T12:02:08;100365.78;;;7.67;68.94
60465;BME280;46314;52.392;9.758;2023-02-01T12:05:03;100358.75;;;8.33;66.51
60465;BME280;46314;52.392;9.758;2023-02-01T12:07:43;100345.19;;;8.61;64.73
60465;BME280;46314;52.392;9.758;2023-02-01T12:10:23;100335.22;;;8.36;65.65
60465;BME280;46314;52.392;9.758;2023-02-01T12:12:58;100337.00;;;8.51;65.46
60465;BME280;46314;52.392;9.758;2023-02-01T12:15:37;100334.91;;;8.43;64.84
60465;BME280;46314;52.392;9.758;2023-02-01T12:18:33;100330.84;;;7.82;66.16
60465;BME280;46314;52.392;9.758;2023-02-01T12:21:06;100325.84;;;8.13;65.89
60465;BME280;46314;52.392;9.758;2023-02-01T12:23:45;100312.03;;;7.54;66.87
60465;BME280;46314;52.392;9.758;2023-02-01T12:26:38;100302.13;;;7.53;69.13
60465;BME280;46314;52.392;9.758;2023-02-01T12:29:30;100304.75;;;7.69;69.63
60465;BME280;46314;52.392;9.758;2023-02-01T12:32:11;100304.41;;;7.46;72.39
60465;BME280;46314;52.392;9.758;2023-02-01T12:35:01;100290.34;;;7.08;73.12
60465;BME280;46314;52.392;9.758;2023-02-01T12:37:43;100292.16;;;7.57;71.89
60465;BME280;46314;52.392;9.758;2023-02-01T12:40:25;100289.25;;;7.44;72.34
60465;BME280;46314;52.392;9.758;2023-02-01T12:42:59;100295.34;;;7.06;76.19
60465;BME280;46314;52.392;9.758;2023-02-01T12:45:31;100285.44;;;7.00;75.97
60465;BME280;46314;52.392;9.758;2023-02-01T12:48:08;100285.34;;;6.76;77.81
60465;BME280;46314;52.392;9.758;2023-02-01T12:50:44;100264.84;;;6.92;78.58
60465;BME280;46314;52.392;9.758;2023-02-01T12:53:23;100273.63;;;7.34;76.39
60465;BME280;46314;52.392;9.758;2023-02-01T12:55:52;100254.97;;;6.86;76.95
60465;BME280;46314;52.392;9.758;2023-02-01T12:58:24;100266.28;;;7.19;77.96
60465;BME280;46314;52.392;9.758;2023-02-01T13:00:57;100276.16;;;6.91;77.70
60465;BME280;46314;52.392;9.758;2023-02-01T13:03:34;100256.13;;;6.75;80.52
60465;BME280;46314;52.392;9.758;2023-02-01T13:06:08;100241.94;;;6.52;80.68
60465;BME280;46314;52.392;9.758;2023-02-01T13:08:41;100292.72;;;6.36;82.22
60465;BME280;46314;52.392;9.758;2023-02-01T13:11:13;100263.41;;;6.55;81.72
60465;BME280;46314;52.392;9.758;2023-02-01T13:13:47;100251.16;;;6.32;83.11
60465;BME280;46314;52.392;9.758;2023-02-01T13:16:23;100264.09;;;6.32;82.26
60465;BME280;46314;52.392;9.758;2023-02-01T13:18:57;100267.94;;;6.31;85.29